Time,TemperatureF,DewpointF,PressureIn,WindDirection,WindDirectionDegrees,WindSpeedMPH,WindSpeedGustMPH,Humidity,HourlyPrecipIn,Conditions,Clouds,dailyrainin,SoftwareType,DateUTC
2013-08-07 00:01:00,76.1,76.1,29.85,South,174,3.0,3.0,100,0.00,,,0.00,WeatherCatV1.20B785,2013-08-07 05:01:00,
2013-08-07 00:06:00,76.1,76.1,29.85,SSW,195,0.0,2.0,100,0.00,,,0.00,WeatherCatV1.20B785,2013-08-07 05:06:00,
2013-08-07 00:11:00,76.0,76.0,29.85,SSE,155,1.0,5.0,100,0.00,,,0.00,WeatherCatV1.20B785,2013-08-07 05:11:00,
2013-08-07 00:16:00,76.0,76.0,29.85,South,176,3.0,6.0,100,0.00,,,0.00,WeatherCatV1.20B785,2013-08-07 05:16:00,
2013-08-07 00:21:00,76.0,76.0,29.85,South,190,0.0,3.0,100,0.00,,,0.00,WeatherCatV1.20B785,2013-08-07 05:21:00,
2013-08-07 00:26:00,76.0,76.0,29.85,SSE,167,3.0,4.0,100,0.00,,,0.00,WeatherCatV1.20B785,2013-08-07 05:26:00,
2013-08-07 00:31:00,76.0,76.0,29.85,South,174,0.0,3.0,100,0.00,,,0.00,WeatherCatV1.20B785,2013-08-07 05:31:00,
2013-08-07 00:36:00,76.1,76.1,29.84,SSW,196,0.0,3.0,100,0.00,,,0.00,WeatherCatV1.20B785,2013-08-07 05:36:00,
2013-08-07 00:41:00,76.1,76.1,29.84,South,170,2.0,5.0,100,0.00,,,0.00,WeatherCatV1.20B785,2013-08-07 05:41:00,
2013-08-07 00:46:00,76.1,76.1,29.84,South,182,2.0,4.0,100,0.00,,,0.00,WeatherCatV1.20B785,2013-08-07 05:46:00,
2013-08-07 00:51:00,76.1,76.1,29.84,SE,141,1.0,5.0,100,0.00,,,0.00,WeatherCatV1.20B785,2013-08-07 05:51:00,
2013-08-07 00:56:00,76.0,76.0,29.83,South,178,0.0,3.0,100,0.00,,,0.00,WeatherCatV1.20B785,2013-08-07 05:56:00,
2013-08-07 01:01:00,76.0,76.0,29.83,SSE,165,0.0,5.0,100,0.00,,,0.00,WeatherCatV1.20B785,2013-08-07 06:01:00,
2013-08-07 01:06:00,75.9,75.9,29.83,SSE,161,0.0,3.0,100,0.00,,,0.00,WeatherCatV1.20B785,2013-08-07 06:06:00,
2013-08-07 01:11:00,75.9,75.9,29.83,South,169,2.0,5.0,100,0.00,,,0.00,WeatherCatV1.20B785,2013-08-07 06:11:00,
2013-08-07 01:16:00,75.9,75.9,29.82,SSE,147,0.0,3.0,100,0.00,,,0.00,WeatherCatV1.20B785,2013-08-07 06:16:00,
2013-08-07 01:21:00,75.8,75.8,29.82,SE,135,0.0,1.0,100,0.00,,,0.00,WeatherCatV1.20B785,2013-08-07 06:21:00,
2013-08-07 01:26:00,75.8,75.8,29.82,SE,143,0.0,3.0,100,0.00,,,0.00,WeatherCatV1.20B785,2013-08-07 06:26:00,
2013-08-07 01:31:00,75.8,75.8,29.82,SE,141,2.0,3.0,100,0.00,,,0.00,WeatherCatV1.20B785,2013-08-07 06:31:00,
2013-08-07 01:36:00,75.8,75.8,29.81,SSE,168,2.0,2.0,100,0.00,,,0.00,WeatherCatV1.20B785,2013-08-07 06:36:00,
2013-08-07 01:41:00,75.8,75.8,29.81,SSE,155,0.0,1.0,100,0.00,,,0.00,WeatherCatV1.20B785,2013-08-07 06:41:00,
2013-08-07 01:46:00,75.7,75.7,29.81,SSE,150,0.0,1.0,100,0.00,,,0.00,WeatherCatV1.20B785,2013-08-07 06:46:00,
2013-08-07 01:51:00,75.8,75.8,29.81,ESE,119,2.0,4.0,100,0.00,,,0.00,WeatherCatV1.20B785,2013-08-07 06:51:00,
2013-08-07 01:56:00,75.8,75.8,29.81,South,173,2.0,2.0,100,0.00,,,0.00,WeatherCatV1.20B785,2013-08-07 06:56:00,
2013-08-07 02:01:00,75.8,75.8,29.81,South,176,2.0,5.0,100,0.00,,,0.00,WeatherCatV1.20B785,2013-08-07 07:01:00,
2013-08-07 02:06:00,75.8,75.8,29.81,SSE,152,0.0,2.0,100,0.00,,,0.00,WeatherCatV1.20B785,2013-08-07 07:06:00,
2013-08-07 02:11:00,75.8,75.8,29.81,SE,134,2.0,3.0,100,0.00,,,0.00,WeatherCatV1.20B785,2013-08-07 07:11:00,
2013-08-07 02:16:00,75.8,75.8,29.80,ESE,123,1.0,3.0,100,0.00,,,0.00,WeatherCatV1.20B785,2013-08-07 07:16:00,
2013-08-07 02:21:00,75.7,75.7,29.81,SSE,167,2.0,2.0,100,0.00,,,0.00,WeatherCatV1.20B785,2013-08-07 07:21:00,
2013-08-07 02:26:00,75.7,75.7,29.80,SSE,153,2.0,2.0,100,0.00,,,0.00,WeatherCatV1.20B785,2013-08-07 07:26:00,
2013-08-07 02:31:00,75.7,75.7,29.80,South,182,0.0,3.0,100,0.00,,,0.00,WeatherCatV1.20B785,2013-08-07 07:31:00,
2013-08-07 02:36:00,75.7,75.7,29.79,SE,145,2.0,4.0,100,0.00,,,0.00,WeatherCatV1.20B785,2013-08-07 07:36:00,
2013-08-07 02:41:00,75.7,75.7,29.80,SSE,162,0.0,1.0,100,0.00,,,0.00,WeatherCatV1.20B785,2013-08-07 07:41:00,
2013-08-07 02:46:00,75.7,75.7,29.80,SSE,161,0.0,0.0,100,0.00,,,0.00,WeatherCatV1.20B785,2013-08-07 07:46:00,
2013-08-07 02:51:00,75.6,75.6,29.81,SSE,161,0.0,1.0,100,0.00,,,0.00,WeatherCatV1.20B785,2013-08-07 07:51:00,
2013-08-07 02:56:00,75.6,75.6,29.80,South,178,0.0,2.0,100,0.00,,,0.00,WeatherCatV1.20B785,2013-08-07 07:56:00,
2013-08-07 03:01:00,75.6,75.6,29.81,South,180,1.0,1.0,100,0.00,,,0.00,WeatherCatV1.20B785,2013-08-07 08:01:00,
2013-08-07 03:06:00,75.6,75.6,29.80,South,180,0.0,1.0,100,0.00,,,0.00,WeatherCatV1.20B785,2013-08-07 08:06:00,
2013-08-07 03:11:00,75.6,75.6,29.80,South,180,0.0,1.0,100,0.00,,,0.00,WeatherCatV1.20B785,2013-08-07 08:11:00,
2013-08-07 03:16:00,75.6,75.6,29.80,SSW,199,1.0,3.0,100,0.00,,,0.00,WeatherCatV1.20B785,2013-08-07 08:16:00,
2013-08-07 03:21:00,75.6,75.6,29.80,South,175,0.0,1.0,100,0.00,,,0.00,WeatherCatV1.20B785,2013-08-07 08:21:00,
2013-08-07 03:26:00,75.7,75.7,29.80,SSE,164,1.0,2.0,100,0.00,,,0.00,WeatherCatV1.20B785,2013-08-07 08:26:00,
2013-08-07 03:31:00,75.7,75.7,29.80,ESE,109,1.0,2.0,100,0.00,,,0.00,WeatherCatV1.20B785,2013-08-07 08:31:00,
2013-08-07 03:36:00,75.7,75.7,29.80,SE,134,1.0,3.0,100,0.00,,,0.00,WeatherCatV1.20B785,2013-08-07 08:36:00,
2013-08-07 03:41:00,75.7,75.7,29.80,SSE,155,0.0,1.0,100,0.00,,,0.00,WeatherCatV1.20B785,2013-08-07 08:41:00,
2013-08-07 03:46:00,75.7,75.7,29.81,South,170,0.0,3.0,100,0.00,,,0.00,WeatherCatV1.20B785,2013-08-07 08:46:00,
2013-08-07 03:51:00,75.7,75.7,29.81,ESE,117,0.0,2.0,100,0.00,,,0.00,WeatherCatV1.20B785,2013-08-07 08:51:00,
2013-08-07 03:56:00,75.7,75.7,29.81,SE,132,0.0,1.0,100,0.00,,,0.00,WeatherCatV1.20B785,2013-08-07 08:56:00,
2013-08-07 04:01:00,75.7,75.7,29.82,SE,138,0.0,1.0,100,0.00,,,0.00,WeatherCatV1.20B785,2013-08-07 09:01:00,
2013-08-07 04:06:00,75.7,75.7,29.82,SE,144,0.0,1.0,100,0.00,,,0.00,WeatherCatV1.20B785,2013-08-07 09:06:00,
2013-08-07 04:11:00,75.7,75.7,29.82,SE,143,0.0,2.0,100,0.00,,,0.00,WeatherCatV1.20B785,2013-08-07 09:11:00,
2013-08-07 04:16:00,75.7,75.7,29.82,SE,144,1.0,1.0,100,0.00,,,0.00,WeatherCatV1.20B785,2013-08-07 09:16:00,
2013-08-07 04:21:00,75.7,75.7,29.82,SSE,156,0.0,1.0,100,0.00,,,0.00,WeatherCatV1.20B785,2013-08-07 09:21:00,
2013-08-07 04:26:00,75.7,75.7,29.81,SE,138,1.0,2.0,100,0.00,,,0.00,WeatherCatV1.20B785,2013-08-07 09:26:00,
2013-08-07 04:31:00,75.7,75.7,29.82,SSE,148,0.0,2.0,100,0.00,,,0.00,WeatherCatV1.20B785,2013-08-07 09:31:00,
2013-08-07 04:36:00,75.7,75.7,29.81,South,179,0.0,2.0,100,0.00,,,0.00,WeatherCatV1.20B785,2013-08-07 09:36:00,
2013-08-07 04:41:00,75.7,75.7,29.81,SSE,165,0.0,1.0,100,0.00,,,0.00,WeatherCatV1.20B785,2013-08-07 09:41:00,
2013-08-07 04:46:00,75.7,75.7,29.80,South,169,0.0,2.0,100,0.00,,,0.00,WeatherCatV1.20B785,2013-08-07 09:46:00,
2013-08-07 04:51:00,75.7,75.7,29.80,ESE,117,0.0,4.0,100,0.00,,,0.00,WeatherCatV1.20B785,2013-08-07 09:51:00,
2013-08-07 04:55:00,75.7,75.7,29.80,South,184,0.0,0.0,100,0.00,,,0.01,WeatherCatV1.20B785,2013-08-07 09:55:00,
2013-08-07 05:00:00,75.6,75.6,29.81,SW,221,0.0,1.0,100,0.00,,,0.01,WeatherCatV1.20B785,2013-08-07 10:00:00,
2013-08-07 05:05:00,75.6,75.6,29.82,WSW,238,0.0,1.0,100,0.26,,,0.03,WeatherCatV1.20B785,2013-08-07 10:05:00,
2013-08-07 05:13:00,74.5,74.5,29.86,NNW,348,9.0,12.0,100,1.34,,,0.18,WeatherCatV1.20B785,2013-08-07 10:13:00,
2013-08-07 05:18:00,73.3,73.3,29.85,NNW,331,10.0,12.0,100,0.16,,,0.19,WeatherCatV1.20B785,2013-08-07 10:18:00,
2013-08-07 05:23:00,72.5,72.5,29.85,WNW,302,15.0,17.0,100,0.41,,,0.21,WeatherCatV1.20B785,2013-08-07 10:23:00,
2013-08-07 05:28:00,72.0,72.0,29.85,North,355,5.0,13.0,100,0.09,,,0.21,WeatherCatV1.20B785,2013-08-07 10:28:00,
2013-08-07 05:33:00,71.7,71.7,29.85,NW,306,4.0,5.0,100,0.05,,,0.21,WeatherCatV1.20B785,2013-08-07 10:33:00,
2013-08-07 05:38:00,71.5,71.5,29.85,North,5,3.0,3.0,100,0.04,,,0.21,WeatherCatV1.20B785,2013-08-07 10:38:00,
2013-08-07 05:43:00,71.4,71.4,29.84,NW,318,1.0,6.0,100,0.00,,,0.21,WeatherCatV1.20B785,2013-08-07 10:43:00,
2013-08-07 05:48:00,71.3,71.3,29.84,North,9,1.0,6.0,100,0.00,,,0.21,WeatherCatV1.20B785,2013-08-07 10:48:00,
2013-08-07 05:53:00,71.2,71.2,29.85,West,264,0.0,2.0,100,0.00,,,0.21,WeatherCatV1.20B785,2013-08-07 10:53:00,
2013-08-07 05:58:00,71.1,71.1,29.86,West,264,1.0,1.0,100,0.00,,,0.21,WeatherCatV1.20B785,2013-08-07 10:58:00,
2013-08-07 06:03:00,71.1,71.1,29.86,West,264,0.0,1.0,100,0.00,,,0.21,WeatherCatV1.20B785,2013-08-07 11:03:00,
2013-08-07 06:08:00,71.0,71.0,29.87,West,264,0.0,0.0,100,0.00,,,0.21,WeatherCatV1.20B785,2013-08-07 11:08:00,
2013-08-07 06:13:00,71.0,71.0,29.87,SSW,209,0.0,2.0,100,0.00,,,0.21,WeatherCatV1.20B785,2013-08-07 11:13:00,
2013-08-07 06:18:00,71.0,71.0,29.87,SSW,209,0.0,1.0,100,0.00,,,0.21,WeatherCatV1.20B785,2013-08-07 11:18:00,
2013-08-07 06:23:00,71.0,71.0,29.88,SSW,209,0.0,0.0,100,0.00,,,0.21,WeatherCatV1.20B785,2013-08-07 11:23:00,
2013-08-07 06:28:00,70.9,70.9,29.88,SSW,209,0.0,0.0,100,0.00,,,0.21,WeatherCatV1.20B785,2013-08-07 11:28:00,
2013-08-07 06:33:00,70.9,70.9,29.89,East,99,0.0,1.0,100,0.00,,,0.21,WeatherCatV1.20B785,2013-08-07 11:33:00,
2013-08-07 06:38:00,71.0,71.0,29.90,East,95,0.0,1.0,100,0.00,,,0.22,WeatherCatV1.20B785,2013-08-07 11:38:00,
2013-08-07 06:43:00,70.9,70.9,29.89,East,92,1.0,4.0,100,0.00,,,0.22,WeatherCatV1.20B785,2013-08-07 11:43:00,
2013-08-07 06:48:00,70.9,70.9,29.89,NE,49,6.0,7.0,100,0.00,,,0.22,WeatherCatV1.20B785,2013-08-07 11:48:00,
2013-08-07 06:53:00,70.8,70.8,29.89,ENE,74,2.0,5.0,100,0.00,,,0.22,WeatherCatV1.20B785,2013-08-07 11:53:00,
2013-08-07 06:58:00,70.7,70.7,29.90,ENE,71,2.0,6.0,100,0.00,,,0.23,WeatherCatV1.20B785,2013-08-07 11:58:00,
2013-08-07 07:03:00,70.6,70.6,29.90,ENE,66,10.0,10.0,100,0.14,,,0.24,WeatherCatV1.20B785,2013-08-07 12:03:00,
2013-08-07 07:08:00,70.6,70.6,29.91,NNE,33,3.0,9.0,100,0.14,,,0.25,WeatherCatV1.20B785,2013-08-07 12:08:00,
2013-08-07 07:13:00,70.6,70.6,29.91,ENE,59,3.0,11.0,100,0.10,,,0.26,WeatherCatV1.20B785,2013-08-07 12:13:00,
2013-08-07 07:18:00,70.5,70.5,29.92,North,355,6.0,9.0,100,0.08,,,0.26,WeatherCatV1.20B785,2013-08-07 12:18:00,
2013-08-07 07:23:00,70.4,70.4,29.93,West,269,0.0,13.0,100,0.08,,,0.28,WeatherCatV1.20B785,2013-08-07 12:23:00,
2013-08-07 07:28:00,70.4,70.4,29.93,NE,47,1.0,7.0,100,0.14,,,0.29,WeatherCatV1.20B785,2013-08-07 12:28:00,
2013-08-07 07:33:00,70.4,70.4,29.93,NE,44,4.0,5.0,100,0.38,,,0.32,WeatherCatV1.20B785,2013-08-07 12:33:00,
2013-08-07 07:38:00,70.4,70.4,29.92,NE,55,4.0,6.0,100,0.11,,,0.33,WeatherCatV1.20B785,2013-08-07 12:38:00,
2013-08-07 07:43:00,70.3,70.3,29.92,NE,51,2.0,4.0,100,0.24,,,0.35,WeatherCatV1.20B785,2013-08-07 12:43:00,
2013-08-07 07:48:00,70.2,70.2,29.92,East,98,0.0,5.0,100,0.10,,,0.35,WeatherCatV1.20B785,2013-08-07 12:48:00,
2013-08-07 07:53:00,70.2,70.2,29.92,ENE,72,5.0,6.0,100,0.08,,,0.36,WeatherCatV1.20B785,2013-08-07 12:53:00,
2013-08-07 07:58:00,70.1,70.1,29.92,ENE,76,5.0,9.0,100,0.07,,,0.36,WeatherCatV1.20B785,2013-08-07 12:58:00,
2013-08-07 08:03:00,70.1,70.1,29.92,East,86,3.0,5.0,100,0.04,,,0.36,WeatherCatV1.20B785,2013-08-07 13:03:00,
2013-08-07 08:08:00,70.1,70.1,29.93,East,101,1.0,6.0,100,0.04,,,0.37,WeatherCatV1.20B785,2013-08-07 13:08:00,
2013-08-07 08:20:00,70.1,70.1,29.95,SE,134,3.0,4.0,100,0.04,,,0.37,WeatherCatV1.20B785,2013-08-07 13:20:00,
2013-08-07 08:25:00,70.1,70.1,29.95,East,92,1.0,2.0,100,0.00,,,0.38,WeatherCatV1.20B785,2013-08-07 13:25:00,
2013-08-07 08:30:00,70.1,70.1,29.95,East,84,0.0,6.0,100,0.00,,,0.38,WeatherCatV1.20B785,2013-08-07 13:30:00,
2013-08-07 08:35:00,70.1,70.1,29.94,East,82,1.0,2.0,100,0.00,,,0.38,WeatherCatV1.20B785,2013-08-07 13:35:00,
2013-08-07 08:40:00,70.0,70.0,29.93,ENE,75,0.0,5.0,100,0.00,,,0.38,WeatherCatV1.20B785,2013-08-07 13:40:00,
2013-08-07 08:45:00,70.0,70.0,29.94,ENE,78,1.0,4.0,100,0.00,,,0.38,WeatherCatV1.20B785,2013-08-07 13:45:00,
2013-08-07 08:50:00,70.0,70.0,29.96,SSW,196,0.0,3.0,100,0.00,,,0.38,WeatherCatV1.20B785,2013-08-07 13:50:00,
2013-08-07 08:55:00,70.0,70.0,29.95,South,169,0.0,4.0,100,0.00,,,0.38,WeatherCatV1.20B785,2013-08-07 13:55:00,
2013-08-07 09:00:00,70.0,70.0,29.95,East,99,3.0,6.0,100,0.00,,,0.38,WeatherCatV1.20B785,2013-08-07 14:00:00,
2013-08-07 09:05:00,70.0,70.0,29.95,SE,126,0.0,3.0,100,0.00,,,0.39,WeatherCatV1.20B785,2013-08-07 14:05:00,
2013-08-07 09:10:00,70.0,70.0,29.95,SE,126,2.0,6.0,100,0.00,,,0.39,WeatherCatV1.20B785,2013-08-07 14:10:00,
2013-08-07 09:15:00,69.9,69.9,29.94,ESE,110,4.0,5.0,100,0.06,,,0.40,WeatherCatV1.20B785,2013-08-07 14:15:00,
2013-08-07 09:20:00,69.9,69.9,29.94,ENE,71,3.0,5.0,100,0.06,,,0.40,WeatherCatV1.20B785,2013-08-07 14:20:00,
2013-08-07 09:25:00,69.8,69.8,29.93,East,92,1.0,2.0,100,0.04,,,0.40,WeatherCatV1.20B785,2013-08-07 14:25:00,
2013-08-07 09:30:00,69.7,69.7,29.92,East,81,3.0,4.0,100,0.00,,,0.40,WeatherCatV1.20B785,2013-08-07 14:30:00,
2013-08-07 09:35:00,69.7,69.7,29.93,ESE,103,0.0,2.0,100,0.00,,,0.41,WeatherCatV1.20B785,2013-08-07 14:35:00,
2013-08-07 09:40:00,69.8,69.8,29.92,ESE,116,4.0,4.0,100,0.00,,,0.41,WeatherCatV1.20B785,2013-08-07 14:40:00,
2013-08-07 09:45:00,69.8,69.8,29.92,South,170,0.0,3.0,100,0.00,,,0.41,WeatherCatV1.20B785,2013-08-07 14:45:00,
2013-08-07 09:50:00,69.9,69.9,29.91,SE,130,2.0,2.0,100,0.00,,,0.42,WeatherCatV1.20B785,2013-08-07 14:50:00,
2013-08-07 09:55:00,69.9,69.9,29.92,SE,140,4.0,4.0,100,0.00,,,0.42,WeatherCatV1.20B785,2013-08-07 14:55:00,
2013-08-07 10:00:00,69.9,69.9,29.91,SSE,160,2.0,6.0,100,0.00,,,0.42,WeatherCatV1.20B785,2013-08-07 15:00:00,
2013-08-07 10:05:00,69.9,69.9,29.92,SSE,153,1.0,5.0,100,0.00,,,0.42,WeatherCatV1.20B785,2013-08-07 15:05:00,
2013-08-07 10:10:00,69.9,69.9,29.91,SSE,148,0.0,7.0,100,0.00,,,0.42,WeatherCatV1.20B785,2013-08-07 15:10:00,
2013-08-07 10:15:00,69.9,69.9,29.91,SE,140,4.0,5.0,100,0.00,,,0.42,WeatherCatV1.20B785,2013-08-07 15:15:00,
2013-08-07 10:20:00,69.9,69.9,29.92,SW,227,2.0,3.0,100,0.00,,,0.42,WeatherCatV1.20B785,2013-08-07 15:20:00,
2013-08-07 10:25:00,70.0,70.0,29.93,SSE,167,1.0,5.0,100,0.00,,,0.42,WeatherCatV1.20B785,2013-08-07 15:25:00,
2013-08-07 10:30:00,70.1,70.1,29.93,South,169,1.0,3.0,100,0.00,,,0.43,WeatherCatV1.20B785,2013-08-07 15:30:00,
2013-08-07 10:35:00,70.1,70.1,29.93,South,190,4.0,6.0,100,0.00,,,0.43,WeatherCatV1.20B785,2013-08-07 15:35:00,
2013-08-07 10:40:00,70.1,70.1,29.93,SSE,159,7.0,8.0,100,0.00,,,0.43,WeatherCatV1.20B785,2013-08-07 15:40:00,
2013-08-07 10:45:00,70.1,70.1,29.93,SSE,149,5.0,6.0,100,0.00,,,0.43,WeatherCatV1.20B785,2013-08-07 15:45:00,
2013-08-07 10:50:00,70.2,70.2,29.93,SSW,192,6.0,7.0,100,0.00,,,0.43,WeatherCatV1.20B785,2013-08-07 15:50:00,
2013-08-07 10:55:00,70.1,70.1,29.93,SSW,209,2.0,10.0,100,0.00,,,0.43,WeatherCatV1.20B785,2013-08-07 15:55:00,
2013-08-07 11:00:00,70.1,70.1,29.92,South,184,5.0,10.0,100,0.00,,,0.43,WeatherCatV1.20B785,2013-08-07 16:00:00,
2013-08-07 11:05:00,70.3,70.3,29.93,South,183,4.0,8.0,100,0.00,,,0.43,WeatherCatV1.20B785,2013-08-07 16:05:00,
2013-08-07 11:10:00,70.4,70.4,29.93,South,171,2.0,5.0,100,0.00,,,0.43,WeatherCatV1.20B785,2013-08-07 16:10:00,
2013-08-07 11:15:00,70.6,70.6,29.93,SSW,200,4.0,4.0,100,0.00,,,0.43,WeatherCatV1.20B785,2013-08-07 16:15:00,
2013-08-07 11:20:00,70.8,70.8,29.93,ESE,103,3.0,4.0,100,0.00,,,0.43,WeatherCatV1.20B785,2013-08-07 16:20:00,
2013-08-07 11:25:00,70.9,70.9,29.93,SSW,204,1.0,6.0,100,0.00,,,0.43,WeatherCatV1.20B785,2013-08-07 16:25:00,
2013-08-07 11:30:00,71.1,71.1,29.93,South,190,0.0,1.0,100,0.00,,,0.43,WeatherCatV1.20B785,2013-08-07 16:30:00,
2013-08-07 11:35:00,71.3,71.3,29.93,South,186,5.0,5.0,100,0.00,,,0.43,WeatherCatV1.20B785,2013-08-07 16:35:00,
2013-08-07 11:40:00,71.6,71.6,29.92,SSE,163,4.0,4.0,100,0.00,,,0.43,WeatherCatV1.20B785,2013-08-07 16:40:00,
2013-08-07 11:45:00,72.2,72.2,29.92,SSW,207,2.0,7.0,100,0.00,,,0.43,WeatherCatV1.20B785,2013-08-07 16:45:00,
2013-08-07 11:50:00,72.3,72.3,29.92,SSW,207,2.0,6.0,100,0.00,,,0.43,WeatherCatV1.20B785,2013-08-07 16:50:00,
2013-08-07 11:55:00,72.1,72.1,29.91,SSE,167,3.0,7.0,100,0.00,,,0.43,WeatherCatV1.20B785,2013-08-07 16:55:00,
2013-08-07 12:00:00,72.2,72.2,29.92,SSE,168,2.0,5.0,100,0.00,,,0.43,WeatherCatV1.20B785,2013-08-07 17:00:00,
2013-08-07 12:05:00,72.4,72.4,29.92,SSW,209,4.0,5.0,100,0.00,,,0.43,WeatherCatV1.20B785,2013-08-07 17:05:00,
2013-08-07 12:10:00,72.4,72.4,29.91,SSE,152,1.0,4.0,100,0.00,,,0.43,WeatherCatV1.20B785,2013-08-07 17:10:00,
2013-08-07 12:15:00,72.6,72.6,29.91,SE,143,2.0,3.0,100,0.00,,,0.43,WeatherCatV1.20B785,2013-08-07 17:15:00,
2013-08-07 12:20:00,72.8,72.8,29.91,South,172,3.0,3.0,100,0.00,,,0.43,WeatherCatV1.20B785,2013-08-07 17:20:00,
2013-08-07 12:25:00,73.0,73.0,29.91,SE,136,2.0,2.0,100,0.00,,,0.43,WeatherCatV1.20B785,2013-08-07 17:25:00,
2013-08-07 12:30:00,73.3,73.3,29.90,SSE,164,2.0,4.0,100,0.00,,,0.43,WeatherCatV1.20B785,2013-08-07 17:30:00,
2013-08-07 12:35:00,73.8,73.8,29.91,West,259,0.0,3.0,100,0.00,,,0.43,WeatherCatV1.20B785,2013-08-07 17:35:00,
2013-08-07 12:40:00,74.4,74.4,29.90,WSW,237,0.0,3.0,100,0.00,,,0.43,WeatherCatV1.20B785,2013-08-07 17:40:00,
2013-08-07 12:45:00,74.8,74.8,29.91,WSW,239,3.0,5.0,100,0.00,,,0.43,WeatherCatV1.20B785,2013-08-07 17:45:00,
2013-08-07 12:50:00,75.1,75.1,29.91,WSW,244,1.0,4.0,100,0.00,,,0.43,WeatherCatV1.20B785,2013-08-07 17:50:00,
2013-08-07 12:53:00,75.2,74.9,29.91,WSW,256,1.0,2.0,99,0.00,,,0.43,WeatherCatV1.20B785,2013-08-07 17:53:00,
2013-08-07 12:58:00,75.5,75.2,29.91,SW,224,4.0,4.0,99,0.00,,,0.43,WeatherCatV1.20B785,2013-08-07 17:58:00,
2013-08-07 13:03:00,75.5,75.2,29.91,South,186,0.0,1.0,99,0.00,,,0.43,WeatherCatV1.20B785,2013-08-07 18:03:00,
2013-08-07 13:08:00,75.9,75.6,29.91,South,182,2.0,7.0,99,0.00,,,0.43,WeatherCatV1.20B785,2013-08-07 18:08:00,
2013-08-07 13:13:00,76.3,75.7,29.91,WSW,257,4.0,5.0,98,0.00,,,0.43,WeatherCatV1.20B785,2013-08-07 18:13:00,
2013-08-07 13:18:00,76.6,76.0,29.90,WSW,254,1.0,8.0,98,0.00,,,0.43,WeatherCatV1.20B785,2013-08-07 18:18:00,
2013-08-07 13:23:00,77.0,76.1,29.90,ENE,70,1.0,7.0,97,0.00,,,0.43,WeatherCatV1.20B785,2013-08-07 18:23:00,
2013-08-07 13:28:00,77.4,76.5,29.90,WSW,240,3.0,5.0,97,0.00,,,0.43,WeatherCatV1.20B785,2013-08-07 18:28:00,
2013-08-07 13:33:00,77.4,76.2,29.89,SW,233,2.0,6.0,96,0.00,,,0.43,WeatherCatV1.20B785,2013-08-07 18:33:00,
2013-08-07 13:38:00,77.3,75.8,29.89,South,180,1.0,3.0,95,0.00,,,0.43,WeatherCatV1.20B785,2013-08-07 18:38:00,
2013-08-07 13:43:00,77.3,75.8,29.89,West,270,0.0,4.0,95,0.00,,,0.43,WeatherCatV1.20B785,2013-08-07 18:43:00,
2013-08-07 13:48:00,77.2,75.7,29.88,SW,217,0.0,3.0,95,0.00,,,0.43,WeatherCatV1.20B785,2013-08-07 18:48:00,
2013-08-07 13:53:00,77.1,75.2,29.88,SSW,211,0.0,4.0,94,0.00,,,0.43,WeatherCatV1.20B785,2013-08-07 18:53:00,
2013-08-07 13:58:00,77.2,75.7,29.88,West,267,1.0,3.0,95,0.00,,,0.43,WeatherCatV1.20B785,2013-08-07 18:58:00,
2013-08-07 14:03:00,77.3,75.4,29.88,South,180,3.0,8.0,94,0.00,,,0.43,WeatherCatV1.20B785,2013-08-07 19:03:00,
2013-08-07 14:08:00,77.3,75.4,29.88,SSW,202,0.0,3.0,94,0.00,,,0.43,WeatherCatV1.20B785,2013-08-07 19:08:00,
2013-08-07 14:13:00,77.5,75.6,29.87,SSW,211,2.0,3.0,94,0.00,,,0.43,WeatherCatV1.20B785,2013-08-07 19:13:00,
2013-08-07 14:18:00,77.5,75.3,29.87,South,184,2.0,6.0,93,0.00,,,0.43,WeatherCatV1.20B785,2013-08-07 19:18:00,
2013-08-07 14:23:00,77.5,75.3,29.87,South,188,0.0,2.0,93,0.00,,,0.43,WeatherCatV1.20B785,2013-08-07 19:23:00,
2013-08-07 14:28:00,77.4,75.2,29.87,SE,143,1.0,4.0,93,0.00,,,0.43,WeatherCatV1.20B785,2013-08-07 19:28:00,
2013-08-07 14:33:00,77.0,74.8,29.87,SE,146,2.0,2.0,93,0.00,,,0.43,WeatherCatV1.20B785,2013-08-07 19:33:00,
2013-08-07 14:38:00,76.9,74.7,29.87,SSE,159,0.0,2.0,93,0.00,,,0.43,WeatherCatV1.20B785,2013-08-07 19:38:00,
2013-08-07 14:43:00,76.9,74.7,29.87,SSE,159,0.0,0.0,93,0.00,,,0.43,WeatherCatV1.20B785,2013-08-07 19:43:00,
2013-08-07 14:48:00,76.9,74.7,29.88,SSE,159,0.0,1.0,93,0.00,,,0.43,WeatherCatV1.20B785,2013-08-07 19:48:00,
2013-08-07 14:53:00,77.0,74.8,29.88,SSE,159,1.0,2.0,93,0.00,,,0.43,WeatherCatV1.20B785,2013-08-07 19:53:00,
2013-08-07 14:58:00,77.0,74.8,29.88,SSE,159,0.0,1.0,93,0.00,,,0.43,WeatherCatV1.20B785,2013-08-07 19:58:00,
2013-08-07 15:03:00,77.1,74.9,29.88,SSE,159,0.0,1.0,93,0.00,,,0.43,WeatherCatV1.20B785,2013-08-07 20:03:00,
2013-08-07 15:08:00,77.4,75.2,29.89,SSE,159,0.0,0.0,93,0.00,,,0.43,WeatherCatV1.20B785,2013-08-07 20:08:00,
2013-08-07 15:13:00,77.6,75.4,29.89,SSE,159,0.0,1.0,93,0.00,,,0.43,WeatherCatV1.20B785,2013-08-07 20:13:00,
2013-08-07 15:18:00,77.8,75.3,29.89,WSW,247,2.0,3.0,92,0.00,,,0.43,WeatherCatV1.20B785,2013-08-07 20:18:00,
2013-08-07 15:23:00,78.0,75.5,29.89,SW,215,0.0,1.0,92,0.00,,,0.43,WeatherCatV1.20B785,2013-08-07 20:23:00,
2013-08-07 15:28:00,78.2,75.3,29.89,SSW,206,0.0,1.0,91,0.00,,,0.43,WeatherCatV1.20B785,2013-08-07 20:28:00,
2013-08-07 15:33:00,78.3,75.4,29.89,SSW,207,0.0,1.0,91,0.00,,,0.43,WeatherCatV1.20B785,2013-08-07 20:33:00,
2013-08-07 15:38:00,78.5,75.3,29.88,SSW,207,1.0,2.0,90,0.00,,,0.43,WeatherCatV1.20B785,2013-08-07 20:38:00,
2013-08-07 15:43:00,78.6,75.4,29.88,SSW,207,0.0,0.0,90,0.00,,,0.43,WeatherCatV1.20B785,2013-08-07 20:43:00,
2013-08-07 15:48:00,78.8,75.6,29.88,SSW,207,0.0,1.0,90,0.00,,,0.43,WeatherCatV1.20B785,2013-08-07 20:48:00,
2013-08-07 15:53:00,78.8,75.6,29.88,SE,128,0.0,1.0,90,0.00,,,0.43,WeatherCatV1.20B785,2013-08-07 20:53:00,
2013-08-07 15:58:00,78.8,75.3,29.89,SE,128,0.0,1.0,89,0.00,,,0.43,WeatherCatV1.20B785,2013-08-07 20:58:00,
2013-08-07 16:03:00,78.8,75.3,29.89,SE,128,0.0,2.0,89,0.00,,,0.43,WeatherCatV1.20B785,2013-08-07 21:03:00,
2013-08-07 16:08:00,78.7,75.2,29.89,SE,128,0.0,0.0,89,0.00,,,0.43,WeatherCatV1.20B785,2013-08-07 21:08:00,
2013-08-07 16:13:00,78.7,75.5,29.88,SE,128,0.0,1.0,90,0.00,,,0.43,WeatherCatV1.20B785,2013-08-07 21:13:00,
2013-08-07 16:18:00,78.6,75.4,29.88,SE,128,0.0,0.0,90,0.00,,,0.43,WeatherCatV1.20B785,2013-08-07 21:18:00,
2013-08-07 16:23:00,78.6,75.4,29.88,SE,128,0.0,0.0,90,0.00,,,0.43,WeatherCatV1.20B785,2013-08-07 21:23:00,
2013-08-07 16:28:00,78.6,75.4,29.88,SE,128,0.0,0.0,90,0.00,,,0.43,WeatherCatV1.20B785,2013-08-07 21:28:00,
2013-08-07 16:33:00,78.6,75.4,29.88,SE,128,0.0,0.0,90,0.00,,,0.43,WeatherCatV1.20B785,2013-08-07 21:33:00,
2013-08-07 16:38:00,78.5,75.3,29.88,SE,128,0.0,1.0,90,0.00,,,0.43,WeatherCatV1.20B785,2013-08-07 21:38:00,
2013-08-07 16:43:00,78.5,75.3,29.88,SE,128,0.0,1.0,90,0.00,,,0.43,WeatherCatV1.20B785,2013-08-07 21:43:00,
2013-08-07 16:49:00,78.5,75.3,29.88,NE,34,0.0,0.0,90,0.00,,,0.43,WeatherCatV1.20B785,2013-08-07 21:49:00,
2013-08-07 16:54:00,78.7,75.2,29.88,NE,43,0.0,1.0,89,0.00,,,0.43,WeatherCatV1.20B785,2013-08-07 21:54:00,
2013-08-07 16:59:00,78.8,75.3,29.87,NE,53,0.0,0.0,89,0.00,,,0.43,WeatherCatV1.20B785,2013-08-07 21:59:00,
2013-08-07 17:04:00,79.0,75.1,29.88,North,355,1.0,1.0,88,0.00,,,0.43,WeatherCatV1.20B785,2013-08-07 22:04:00,
2013-08-07 17:09:00,79.2,75.7,29.88,North,355,0.0,1.0,89,0.00,,,0.43,WeatherCatV1.20B785,2013-08-07 22:09:00,
2013-08-07 17:14:00,79.3,75.4,29.88,North,349,0.0,3.0,88,0.00,,,0.43,WeatherCatV1.20B785,2013-08-07 22:14:00,
2013-08-07 17:19:00,79.5,76.0,29.88,NNW,340,0.0,1.0,89,0.00,,,0.43,WeatherCatV1.20B785,2013-08-07 22:19:00,
2013-08-07 17:24:00,79.9,76.0,29.88,North,9,1.0,3.0,88,0.00,,,0.43,WeatherCatV1.20B785,2013-08-07 22:24:00,
2013-08-07 17:29:00,80.3,76.1,29.88,NNW,327,1.0,2.0,87,0.00,,,0.43,WeatherCatV1.20B785,2013-08-07 22:29:00,
2013-08-07 17:34:00,80.7,76.5,29.88,West,271,0.0,1.0,87,0.00,,,0.43,WeatherCatV1.20B785,2013-08-07 22:34:00,
2013-08-07 17:39:00,80.9,75.9,29.88,NNE,13,0.0,3.0,85,0.00,,,0.43,WeatherCatV1.20B785,2013-08-07 22:39:00,
2013-08-07 17:44:00,81.0,76.1,29.88,NNE,13,1.0,3.0,85,0.00,,,0.43,WeatherCatV1.20B785,2013-08-07 22:44:00,
2013-08-07 17:49:00,81.2,76.9,29.88,NNE,13,1.0,1.0,87,0.00,,,0.43,WeatherCatV1.20B785,2013-08-07 22:49:00,
2013-08-07 17:54:00,81.4,76.4,29.88,NNE,16,2.0,2.0,85,0.00,,,0.43,WeatherCatV1.20B785,2013-08-07 22:54:00,
2013-08-07 17:59:00,81.6,77.0,29.88,NW,322,0.0,2.0,86,0.00,,,0.43,WeatherCatV1.20B785,2013-08-07 22:59:00,
2013-08-07 18:04:00,81.8,76.5,29.88,NW,322,0.0,1.0,84,0.00,,,0.43,WeatherCatV1.20B785,2013-08-07 23:04:00,
2013-08-07 18:09:00,82.1,77.1,29.88,NW,314,1.0,2.0,85,0.00,,,0.43,WeatherCatV1.20B785,2013-08-07 23:09:00,
2013-08-07 18:14:00,82.2,76.9,29.88,WNW,290,0.0,2.0,84,0.00,,,0.43,WeatherCatV1.20B785,2013-08-07 23:14:00,
2013-08-07 18:19:00,82.4,77.4,29.87,WNW,290,1.0,1.0,85,0.00,,,0.43,WeatherCatV1.20B785,2013-08-07 23:19:00,
2013-08-07 18:24:00,82.3,76.6,29.87,WNW,290,0.0,1.0,83,0.00,,,0.43,WeatherCatV1.20B785,2013-08-07 23:24:00,
2013-08-07 18:29:00,82.6,77.3,29.87,WNW,290,0.0,1.0,84,0.00,,,0.43,WeatherCatV1.20B785,2013-08-07 23:29:00,
2013-08-07 18:34:00,82.7,77.0,29.87,WNW,290,0.0,0.0,83,0.00,,,0.43,WeatherCatV1.20B785,2013-08-07 23:34:00,
2013-08-07 18:39:00,83.0,77.3,29.87,WNW,290,0.0,0.0,83,0.00,,,0.43,WeatherCatV1.20B785,2013-08-07 23:39:00,
2013-08-07 18:44:00,83.2,77.5,29.87,WNW,290,0.0,1.0,83,0.00,,,0.43,WeatherCatV1.20B785,2013-08-07 23:44:00,
2013-08-07 18:49:00,83.2,76.7,29.87,WNW,289,0.0,1.0,81,0.00,,,0.43,WeatherCatV1.20B785,2013-08-07 23:49:00,
2013-08-07 18:54:00,83.2,76.7,29.87,WNW,290,0.0,0.0,81,0.00,,,0.43,WeatherCatV1.20B785,2013-08-07 23:54:00,
2013-08-07 18:59:00,83.1,77.0,29.87,WNW,289,0.0,0.0,82,0.00,,,0.43,WeatherCatV1.20B785,2013-08-07 23:59:00,
2013-08-07 19:04:00,82.9,76.8,29.87,WNW,289,0.0,0.0,82,0.00,,,0.43,WeatherCatV1.20B785,2013-08-08 00:04:00,
2013-08-07 19:09:00,82.7,76.6,29.87,WNW,290,0.0,1.0,82,0.00,,,0.43,WeatherCatV1.20B785,2013-08-08 00:09:00,
2013-08-07 19:14:00,82.4,76.0,29.87,WNW,290,0.0,3.0,81,0.00,,,0.43,WeatherCatV1.20B785,2013-08-08 00:14:00,
2013-08-07 19:19:00,82.1,76.0,29.87,WNW,290,0.0,2.0,82,0.00,,,0.43,WeatherCatV1.20B785,2013-08-08 00:19:00,
2013-08-07 19:24:00,82.0,75.9,29.87,WNW,290,0.0,0.0,82,0.00,,,0.43,WeatherCatV1.20B785,2013-08-08 00:24:00,
2013-08-07 19:29:00,81.8,76.1,29.87,WNW,289,0.0,0.0,83,0.00,,,0.43,WeatherCatV1.20B785,2013-08-08 00:29:00,
2013-08-07 19:34:00,81.4,76.1,29.87,WNW,289,0.0,0.0,84,0.00,,,0.43,WeatherCatV1.20B785,2013-08-08 00:34:00,
2013-08-07 19:39:00,81.1,75.8,29.88,WNW,289,0.0,0.0,84,0.00,,,0.43,WeatherCatV1.20B785,2013-08-08 00:39:00,
2013-08-07 19:44:00,80.8,75.8,29.88,WNW,289,0.0,0.0,85,0.00,,,0.43,WeatherCatV1.20B785,2013-08-08 00:44:00,
2013-08-07 19:49:00,80.5,75.9,29.88,WNW,289,0.0,0.0,86,0.00,,,0.43,WeatherCatV1.20B785,2013-08-08 00:49:00,
2013-08-07 19:54:00,80.2,76.0,29.88,WNW,289,0.0,0.0,87,0.00,,,0.43,WeatherCatV1.20B785,2013-08-08 00:54:00,
2013-08-07 19:59:00,79.9,76.0,29.87,WNW,289,0.0,0.0,88,0.00,,,0.43,WeatherCatV1.20B785,2013-08-08 00:59:00,
2013-08-07 20:04:00,79.6,75.7,29.88,WNW,289,0.0,0.0,88,0.00,,,0.43,WeatherCatV1.20B785,2013-08-08 01:04:00,
2013-08-07 20:09:00,79.2,75.7,29.88,WNW,290,0.0,0.0,89,0.00,,,0.43,WeatherCatV1.20B785,2013-08-08 01:09:00,
2013-08-07 20:14:00,78.9,75.4,29.88,WNW,289,0.0,0.0,89,0.00,,,0.43,WeatherCatV1.20B785,2013-08-08 01:14:00,
2013-08-07 20:19:00,78.6,75.4,29.88,WNW,289,0.0,0.0,90,0.00,,,0.43,WeatherCatV1.20B785,2013-08-08 01:19:00,
2013-08-07 20:24:00,78.2,75.0,29.88,WNW,289,0.0,0.0,90,0.00,,,0.43,WeatherCatV1.20B785,2013-08-08 01:24:00,
2013-08-07 20:29:00,77.9,75.1,29.88,WNW,289,0.0,0.0,91,0.00,,,0.43,WeatherCatV1.20B785,2013-08-08 01:29:00,
2013-08-07 20:34:00,77.5,74.7,29.88,WNW,289,0.0,0.0,91,0.00,,,0.43,WeatherCatV1.20B785,2013-08-08 01:34:00,
2013-08-07 20:39:00,77.2,74.4,29.88,WNW,289,0.0,0.0,91,0.00,,,0.43,WeatherCatV1.20B785,2013-08-08 01:39:00,
2013-08-07 20:44:00,76.9,74.4,29.88,WNW,289,0.0,0.0,92,0.00,,,0.43,WeatherCatV1.20B785,2013-08-08 01:44:00,
2013-08-07 20:49:00,76.6,74.4,29.88,WNW,289,0.0,0.0,93,0.00,,,0.43,WeatherCatV1.20B785,2013-08-08 01:49:00,
2013-08-07 20:54:00,76.3,74.1,29.88,WNW,289,0.0,0.0,93,0.00,,,0.43,WeatherCatV1.20B785,2013-08-08 01:54:00,
2013-08-07 20:59:00,76.0,73.8,29.88,WNW,290,0.0,0.0,93,0.00,,,0.43,WeatherCatV1.20B785,2013-08-08 01:59:00,
2013-08-07 21:04:00,75.7,73.5,29.89,WNW,289,0.0,0.0,93,0.00,,,0.43,WeatherCatV1.20B785,2013-08-08 02:04:00,
2013-08-07 21:09:00,75.5,73.3,29.89,WNW,289,0.0,0.0,93,0.00,,,0.43,WeatherCatV1.20B785,2013-08-08 02:09:00,
2013-08-07 21:14:00,75.3,73.1,29.90,WNW,290,0.0,0.0,93,0.00,,,0.43,WeatherCatV1.20B785,2013-08-08 02:14:00,
2013-08-07 21:19:00,75.1,73.2,29.90,WNW,289,0.0,0.0,94,0.00,,,0.43,WeatherCatV1.20B785,2013-08-08 02:19:00,
2013-08-07 21:24:00,74.9,73.1,29.90,WNW,289,0.0,0.0,94,0.00,,,0.43,WeatherCatV1.20B785,2013-08-08 02:24:00,
2013-08-07 21:29:00,74.8,72.9,29.90,WNW,289,0.0,0.0,94,0.00,,,0.43,WeatherCatV1.20B785,2013-08-08 02:29:00,
2013-08-07 21:34:00,74.6,73.1,29.90,WNW,290,0.0,0.0,95,0.00,,,0.43,WeatherCatV1.20B785,2013-08-08 02:34:00,
2013-08-07 21:39:00,74.5,73.0,29.90,WNW,289,0.0,0.0,95,0.00,,,0.43,WeatherCatV1.20B785,2013-08-08 02:39:00,
2013-08-07 21:44:00,74.3,72.8,29.90,WNW,289,0.0,0.0,95,0.00,,,0.43,WeatherCatV1.20B785,2013-08-08 02:44:00,
2013-08-07 21:49:00,74.2,73.0,29.89,WNW,289,0.0,0.0,96,0.00,,,0.43,WeatherCatV1.20B785,2013-08-08 02:49:00,
2013-08-07 21:54:00,74.0,72.8,29.89,WNW,289,0.0,0.0,96,0.00,,,0.43,WeatherCatV1.20B785,2013-08-08 02:54:00,
2013-08-07 21:59:00,73.9,72.7,29.90,WNW,290,0.0,0.0,96,0.00,,,0.43,WeatherCatV1.20B785,2013-08-08 02:59:00,
2013-08-07 22:04:00,73.7,72.5,29.90,WNW,289,0.0,0.0,96,0.00,,,0.43,WeatherCatV1.20B785,2013-08-08 03:04:00,
2013-08-07 22:09:00,73.6,72.4,29.90,WNW,289,0.0,0.0,96,0.00,,,0.43,WeatherCatV1.20B785,2013-08-08 03:09:00,
2013-08-07 22:14:00,73.5,72.3,29.91,WNW,290,0.0,0.0,96,0.00,,,0.43,WeatherCatV1.20B785,2013-08-08 03:14:00,
2013-08-07 22:19:00,73.4,72.2,29.90,WNW,289,0.0,0.0,96,0.00,,,0.43,WeatherCatV1.20B785,2013-08-08 03:19:00,
2013-08-07 22:24:00,73.3,72.4,29.91,WNW,289,0.0,0.0,97,0.00,,,0.43,WeatherCatV1.20B785,2013-08-08 03:24:00,
2013-08-07 22:29:00,73.2,72.3,29.90,WNW,289,0.0,0.0,97,0.00,,,0.43,WeatherCatV1.20B785,2013-08-08 03:29:00,
2013-08-07 22:34:00,73.2,72.3,29.90,WNW,290,0.0,0.0,97,0.00,,,0.43,WeatherCatV1.20B785,2013-08-08 03:34:00,
2013-08-07 22:39:00,73.1,72.2,29.90,WNW,289,0.0,0.0,97,0.00,,,0.43,WeatherCatV1.20B785,2013-08-08 03:39:00,
2013-08-07 22:44:00,73.1,72.5,29.90,WNW,290,0.0,0.0,98,0.00,,,0.43,WeatherCatV1.20B785,2013-08-08 03:44:00,
2013-08-07 22:49:00,73.2,72.6,29.90,WNW,289,0.0,0.0,98,0.00,,,0.43,WeatherCatV1.20B785,2013-08-08 03:49:00,
2013-08-07 22:54:00,73.3,72.7,29.90,WNW,289,0.0,0.0,98,0.00,,,0.43,WeatherCatV1.20B785,2013-08-08 03:54:00,
2013-08-07 22:59:00,73.3,72.7,29.91,WNW,289,0.0,0.0,98,0.00,,,0.43,WeatherCatV1.20B785,2013-08-08 03:59:00,
2013-08-07 23:01:00,73.3,72.7,29.91,WNW,290,0.0,0.0,98,0.00,,,0.43,WeatherCatV1.20B785,2013-08-08 04:01:00,
2013-08-07 23:06:00,73.2,72.6,29.90,WNW,289,0.0,0.0,98,0.00,,,0.43,WeatherCatV1.20B785,2013-08-08 04:06:00,
2013-08-07 23:11:00,73.2,72.6,29.91,WNW,290,0.0,0.0,98,0.00,,,0.43,WeatherCatV1.20B785,2013-08-08 04:11:00,
2013-08-07 23:16:00,73.1,72.8,29.91,WNW,289,0.0,0.0,99,0.00,,,0.43,WeatherCatV1.20B785,2013-08-08 04:16:00,
2013-08-07 23:21:00,73.1,72.8,29.91,WNW,289,0.0,0.0,99,0.00,,,0.43,WeatherCatV1.20B785,2013-08-08 04:21:00,
2013-08-07 23:26:00,73.1,72.8,29.91,WNW,290,0.0,0.0,99,0.00,,,0.43,WeatherCatV1.20B785,2013-08-08 04:26:00,
2013-08-07 23:31:00,73.1,72.8,29.91,WNW,289,0.0,0.0,99,0.00,,,0.43,WeatherCatV1.20B785,2013-08-08 04:31:00,
2013-08-07 23:36:00,73.0,72.7,29.91,WNW,290,0.0,0.0,99,0.00,,,0.43,WeatherCatV1.20B785,2013-08-08 04:36:00,
2013-08-07 23:41:00,73.0,72.7,29.91,WNW,290,0.0,0.0,99,0.00,,,0.43,WeatherCatV1.20B785,2013-08-08 04:41:00,
2013-08-07 23:46:00,73.0,72.7,29.91,WNW,290,0.0,0.0,99,0.00,,,0.43,WeatherCatV1.20B785,2013-08-08 04:46:00,
2013-08-07 23:51:00,73.0,72.7,29.91,WNW,290,0.0,0.0,99,0.00,,,0.43,WeatherCatV1.20B785,2013-08-08 04:51:00,
2013-08-07 23:56:00,72.9,72.6,29.91,WNW,289,0.0,0.0,99,0.00,,,0.43,WeatherCatV1.20B785,2013-08-08 04:56:00,